Time;durP1;ratioP1;P1;durP2;ratioP2;P2;SDS_P1;SDS_P2;PMS_P1;PMS_P2;Temp;Humidity;BMP_temperature;BMP_pressure;BME280_temperature;BME280_humidity;BME280_pressure;Samples;Min_cycle;Max_cycle;Signal;HPM_P1;HPM_P2
2023/03/30 00:00:57;;;;;;;8.75;3.70;;;;;;;;;;5105060;28;20692;-81
2023/03/30 00:03:26;;;;;;;10.57;4.28;;;;;;;;;;5103838;27;20056;-81
2023/03/30 00:05:56;;;;;;;9.52;3.60;;;;;;;;;;5105843;27;20127;-81
2023/03/30 00:08:27;;;;;;;9.45;4.20;;;;;;;;;;5119889;27;21119;-81
2023/03/30 00:11:00;;;;;;;8.85;3.95;;;;;;;;;;5121678;27;20126;-81
2023/03/30 00:13:27;;;;;;;10.73;3.97;;;;;;;;;;5108012;27;20054;-81
2023/03/30 00:15:53;;;;;;;9.02;3.88;;;;;;;;;;5116300;27;20052;-81
2023/03/30 00:18:20;;;;;;;10.25;4.05;;;;;;;;;;5124596;27;20059;-81
2023/03/30 00:20:50;;;;;;;8.73;3.72;;;;;;;;;;5114277;27;20048;-81
2023/03/30 00:23:17;;;;;;;6.68;3.63;;;;;;;;;;5119067;27;20063;-81
2023/03/30 00:25:44;;;;;;;7.65;3.60;;;;;;;;;;5122926;27;20062;-81
2023/03/30 00:28:10;;;;;;;7.57;3.60;;;;;;;;;;5125456;27;20130;-80
2023/03/30 00:30:38;;;;;;;14.10;3.60;;;;;;;;;;5115233;27;20054;-80
2023/03/30 00:33:05;;;;;;;9.27;3.58;;;;;;;;;;5120377;27;20169;-80
2023/03/30 00:35:31;;;;;;;8.20;3.30;;;;;;;;;;5106481;27;20146;-80
2023/03/30 00:38:02;;;;;;;8.52;3.65;;;;;;;;;;5123743;27;20163;-80
2023/03/30 00:40:29;;;;;;;7.10;3.33;;;;;;;;;;5104107;27;20064;-80
2023/03/30 00:42:59;;;;;;;8.27;3.17;;;;;;;;;;5123067;27;20498;-80
2023/03/30 00:45:28;;;;;;;5.13;2.63;;;;;;;;;;5107106;27;20125;-81
2023/03/30 00:48:08;;;;;;;12.30;2.95;;;;;;;;;;5120579;27;20040;-80
2023/03/30 00:50:46;;;;;;;7.75;2.85;;;;;;;;;;5120730;27;20067;-80
2023/03/30 00:53:21;;;;;;;7.47;2.70;;;;;;;;;;5104847;27;20077;-80
2023/03/30 00:55:49;;;;;;;6.85;2.85;;;;;;;;;;5121948;27;20105;-80
2023/03/30 00:58:16;;;;;;;5.63;2.58;;;;;;;;;;5121025;27;20064;-80
2023/03/30 01:00:45;;;;;;;7.40;2.67;;;;;;;;;;5123653;27;20056;-80
2023/03/30 01:03:18;;;;;;;8.27;2.80;;;;;;;;;;5107235;27;20094;-80
2023/03/30 01:05:45;;;;;;;5.18;2.50;;;;;;;;;;5109490;27;20510;-81
2023/03/30 01:08:12;;;;;;;7.18;2.60;;;;;;;;;;5122416;27;20055;-80
2023/03/30 01:10:39;;;;;;;5.97;2.42;;;;;;;;;;5088808;28;20059;-80
2023/03/30 01:13:05;;;;;;;10.93;2.50;;;;;;;;;;5108570;27;20059;-80
2023/03/30 01:15:33;;;;;;;6.60;2.58;;;;;;;;;;5127495;27;20533;-81
2023/03/30 01:18:12;;;;;;;6.30;2.83;;;;;;;;;;5127705;27;20060;-81
2023/03/30 01:20:39;;;;;;;9.23;2.63;;;;;;;;;;5108918;27;20109;-81
2023/03/30 01:23:11;;;;;;;13.05;2.75;;;;;;;;;;5116134;27;20580;-80
2023/03/30 01:25:58;;;;;;;6.68;2.38;;;;;;;;;;5106577;28;20076;-80
2023/03/30 01:28:36;;;;;;;7.82;2.78;;;;;;;;;;5110966;27;21018;-81
2023/03/30 01:31:13;;;;;;;8.65;2.63;;;;;;;;;;5089545;27;20052;-80
2023/03/30 01:33:45;;;;;;;9.18;2.78;;;;;;;;;;5125220;27;20074;-80
2023/03/30 01:36:47;;;;;;;7.55;2.45;;;;;;;;;;5106621;27;20082;-81
2023/03/30 01:39:20;;;;;;;6.78;2.33;;;;;;;;;;5058773;28;20174;-81
2023/03/30 01:41:46;;;;;;;6.15;2.70;;;;;;;;;;5106549;27;20056;-81
2023/03/30 01:44:46;;;;;;;11.38;3.08;;;;;;;;;;5118302;27;20047;-80
2023/03/30 01:47:13;;;;;;;5.20;2.27;;;;;;;;;;5074468;27;20071;-80
2023/03/30 01:49:58;;;;;;;6.35;2.40;;;;;;;;;;5099479;27;20512;-80
2023/03/30 01:52:24;;;;;;;7.05;2.45;;;;;;;;;;5110904;27;20492;-80
2023/03/30 01:54:56;;;;;;;7.25;2.20;;;;;;;;;;5086593;28;20056;-80
2023/03/30 01:57:33;;;;;;;8.85;2.97;;;;;;;;;;5122120;27;20658;-80
2023/03/30 02:00:11;;;;;;;6.75;2.38;;;;;;;;;;5120692;27;20056;-81
2023/03/30 02:02:38;;;;;;;10.63;2.88;;;;;;;;;;5108263;27;20094;-81
2023/03/30 02:05:05;;;;;;;5.32;2.20;;;;;;;;;;5124263;27;20166;-81
2023/03/30 02:07:32;;;;;;;10.27;2.45;;;;;;;;;;5087791;28;20090;-81
2023/03/30 02:10:00;;;;;;;6.55;2.00;;;;;;;;;;5121917;27;20069;-81
2023/03/30 02:12:28;;;;;;;6.45;2.15;;;;;;;;;;5126300;27;20054;-80
2023/03/30 02:14:57;;;;;;;6.68;2.13;;;;;;;;;;5120890;27;20059;-80
2023/03/30 02:17:26;;;;;;;8.90;2.50;;;;;;;;;;5126385;27;20540;-81
2023/03/30 02:19:55;;;;;;;8.70;2.63;;;;;;;;;;5124965;27;20051;-81
2023/03/30 02:22:22;;;;;;;4.38;2.10;;;;;;;;;;5107946;27;20070;-80
2023/03/30 02:24:51;;;;;;;7.03;2.20;;;;;;;;;;5114479;27;20044;-80
2023/03/30 02:27:18;;;;;;;7.15;2.08;;;;;;;;;;5087371;28;20502;-81
2023/03/30 02:29:45;;;;;;;8.60;2.40;;;;;;;;;;5106492;27;20048;-80
2023/03/30 02:32:35;;;;;;;7.03;2.25;;;;;;;;;;5106596;27;20052;-81
2023/03/30 02:35:01;;;;;;;7.38;2.25;;;;;;;;;;5090963;27;20888;-81
2023/03/30 02:38:00;;;;;;;7.53;2.60;;;;;;;;;;5125503;27;20043;-81
2023/03/30 02:40:30;;;;;;;7.60;2.20;;;;;;;;;;5079127;27;20132;-81
2023/03/30 02:42:58;;;;;;;5.68;1.92;;;;;;;;;;5122618;27;20047;-80
2023/03/30 02:45:30;;;;;;;4.78;1.83;;;;;;;;;;5116490;27;20051;-81
2023/03/30 02:48:17;;;;;;;5.72;1.98;;;;;;;;;;5124729;27;20618;-80
2023/03/30 02:51:02;;;;;;;7.38;2.00;;;;;;;;;;5123044;27;20047;-80
2023/03/30 02:53:40;;;;;;;8.13;1.73;;;;;;;;;;5104925;28;20075;-80
2023/03/30 02:56:10;;;;;;;5.47;2.08;;;;;;;;;;5106254;27;20135;-80
2023/03/30 02:58:42;;;;;;;5.97;2.17;;;;;;;;;;5118423;27;20510;-80
2023/03/30 03:01:29;;;;;;;4.70;1.88;;;;;;;;;;5123130;27;20508;-80
2023/03/30 03:03:57;;;;;;;6.45;1.60;;;;;;;;;;5105342;27;20077;-80
2023/03/30 03:06:24;;;;;;;7.00;1.80;;;;;;;;;;5107458;27;20090;-80
2023/03/30 03:08:52;;;;;;;5.15;1.60;;;;;;;;;;5102602;27;20062;-81
2023/03/30 03:11:18;;;;;;;5.35;1.52;;;;;;;;;;5124560;27;20175;-80
2023/03/30 03:13:44;;;;;;;7.63;1.90;;;;;;;;;;5104285;27;20076;-80
2023/03/30 03:16:11;;;;;;;6.50;1.63;;;;;;;;;;5111570;27;20135;-81
2023/03/30 03:18:40;;;;;;;6.25;1.70;;;;;;;;;;5116786;27;20050;-81
2023/03/30 03:21:08;;;;;;;8.60;1.75;;;;;;;;;;5125403;27;20055;-80
2023/03/30 03:23:35;;;;;;;7.75;1.70;;;;;;;;;;5125412;27;20105;-80
2023/03/30 03:26:02;;;;;;;7.45;1.98;;;;;;;;;;5111893;27;20056;-80
2023/03/30 03:28:29;;;;;;;8.77;1.42;;;;;;;;;;5111010;27;20167;-80
2023/03/30 03:30:57;;;;;;;3.90;1.40;;;;;;;;;;5122104;27;20078;-80
2023/03/30 03:33:23;;;;;;;6.80;1.50;;;;;;;;;;5105116;27;20055;-80
2023/03/30 03:35:52;;;;;;;8.20;1.80;;;;;;;;;;5103535;27;21186;-80
2023/03/30 03:38:20;;;;;;;5.82;1.70;;;;;;;;;;5123793;27;20102;-81
2023/03/30 03:40:50;;;;;;;7.25;1.48;;;;;;;;;;5105408;27;20936;-80
2023/03/30 03:43:17;;;;;;;4.80;1.50;;;;;;;;;;5121119;27;20047;-81
2023/03/30 03:45:45;;;;;;;7.43;1.70;;;;;;;;;;5121665;27;20032;-80
2023/03/30 03:48:15;;;;;;;5.72;1.38;;;;;;;;;;5123572;27;20058;-80
2023/03/30 03:50:41;;;;;;;7.20;1.67;;;;;;;;;;5124276;27;20055;-80
2023/03/30 03:53:08;;;;;;;6.45;1.50;;;;;;;;;;5124571;27;20063;-80
2023/03/30 03:55:35;;;;;;;4.93;1.50;;;;;;;;;;5123504;27;20070;-81
2023/03/30 03:58:02;;;;;;;4.93;1.20;;;;;;;;;;5101660;28;20175;-81
2023/03/30 04:00:29;;;;;;;4.35;1.30;;;;;;;;;;5105068;28;20131;-80
2023/03/30 04:02:55;;;;;;;6.60;1.20;;;;;;;;;;5103398;28;20066;-80
2023/03/30 04:05:22;;;;;;;5.97;1.40;;;;;;;;;;5115216;27;20052;-80
2023/03/30 04:07:49;;;;;;;9.13;1.75;;;;;;;;;;5104854;27;20525;-80
2023/03/30 04:10:15;;;;;;;6.00;1.10;;;;;;;;;;5121887;27;20054;-80
2023/03/30 04:12:41;;;;;;;7.15;1.70;;;;;;;;;;5124285;27;20052;-80
2023/03/30 04:15:08;;;;;;;7.10;1.40;;;;;;;;;;5121355;27;20058;-80
2023/03/30 04:17:35;;;;;;;5.45;1.50;;;;;;;;;;5111034;27;20059;-81
2023/03/30 04:20:03;;;;;;;6.00;1.38;;;;;;;;;;5107363;27;20047;-81
2023/03/30 04:22:34;;;;;;;4.38;1.38;;;;;;;;;;5123107;27;20070;-81
2023/03/30 04:25:05;;;;;;;4.60;1.45;;;;;;;;;;5084947;28;20048;-81
2023/03/30 04:27:32;;;;;;;7.68;1.40;;;;;;;;;;5088897;27;20062;-80
2023/03/30 04:30:00;;;;;;;4.40;1.25;;;;;;;;;;5100484;27;20515;-80
2023/03/30 04:32:33;;;;;;;6.85;1.50;;;;;;;;;;5106639;27;20048;-80
2023/03/30 04:35:00;;;;;;;6.65;1.92;;;;;;;;;;5090843;27;20055;-80
2023/03/30 04:37:29;;;;;;;8.02;1.60;;;;;;;;;;5117593;27;20921;-81
2023/03/30 04:39:58;;;;;;;8.75;2.00;;;;;;;;;;5117855;27;20524;-80
2023/03/30 04:42:29;;;;;;;8.20;1.48;;;;;;;;;;5113268;27;20048;-80
2023/03/30 04:44:56;;;;;;;5.00;1.70;;;;;;;;;;5097104;28;20066;-80
2023/03/30 04:47:23;;;;;;;10.40;1.80;;;;;;;;;;5090726;28;20064;-80
2023/03/30 04:49:50;;;;;;;5.55;1.42;;;;;;;;;;5115270;27;20880;-80
2023/03/30 04:52:17;;;;;;;5.35;1.83;;;;;;;;;;5097555;27;21383;-80
2023/03/30 04:54:43;;;;;;;5.60;1.88;;;;;;;;;;5118039;27;20052;-80
2023/03/30 04:57:11;;;;;;;5.57;1.67;;;;;;;;;;5114268;27;20082;-80
2023/03/30 04:59:37;;;;;;;9.38;2.00;;;;;;;;;;5097138;27;20043;-81
2023/03/30 05:02:04;;;;;;;6.55;1.85;;;;;;;;;;5109156;27;20159;-80
2023/03/30 05:04:30;;;;;;;6.22;1.80;;;;;;;;;;5123455;27;20810;-80
2023/03/30 05:06:57;;;;;;;6.75;1.98;;;;;;;;;;5107947;27;20999;-80
2023/03/30 05:09:23;;;;;;;6.10;1.90;;;;;;;;;;5127301;27;20050;-80
2023/03/30 05:11:49;;;;;;;8.80;2.25;;;;;;;;;;5121228;27;20135;-80
2023/03/30 05:14:16;;;;;;;7.68;2.28;;;;;;;;;;5106009;27;20058;-81
2023/03/30 05:16:42;;;;;;;10.15;2.65;;;;;;;;;;5105742;27;20162;-81
2023/03/30 05:19:08;;;;;;;11.07;2.40;;;;;;;;;;5116162;27;20044;-81
2023/03/30 05:21:35;;;;;;;7.82;2.35;;;;;;;;;;5126625;27;20506;-81
2023/03/30 05:24:01;;;;;;;13.23;2.80;;;;;;;;;;5125326;27;20066;-81
2023/03/30 05:26:27;;;;;;;9.35;2.75;;;;;;;;;;5125717;27;20059;-81
2023/03/30 05:28:54;;;;;;;11.88;3.00;;;;;;;;;;5122905;27;20061;-81
2023/03/30 05:31:20;;;;;;;7.13;2.80;;;;;;;;;;5113881;27;20545;-81
2023/03/30 05:33:47;;;;;;;10.23;2.75;;;;;;;;;;5115737;27;20291;-81
2023/03/30 05:36:13;;;;;;;8.60;2.58;;;;;;;;;;5126249;27;20490;-81
2023/03/30 05:38:40;;;;;;;10.68;2.30;;;;;;;;;;5122582;27;20140;-81
2023/03/30 05:41:07;;;;;;;10.85;3.22;;;;;;;;;;5100636;27;20055;-81
2023/03/30 05:43:33;;;;;;;9.98;2.80;;;;;;;;;;5112282;27;20052;-81
2023/03/30 05:46:01;;;;;;;8.65;2.40;;;;;;;;;;5108024;27;20135;-80
2023/03/30 05:48:28;;;;;;;10.68;3.13;;;;;;;;;;5117348;27;20533;-81
2023/03/30 05:50:54;;;;;;;13.10;2.72;;;;;;;;;;5100534;27;20925;-81
2023/03/30 05:53:21;;;;;;;8.65;2.83;;;;;;;;;;5104007;27;20056;-81
2023/03/30 05:55:48;;;;;;;9.15;2.83;;;;;;;;;;5122818;27;20066;-81
2023/03/30 05:58:15;;;;;;;13.15;3.55;;;;;;;;;;5107966;27;20133;-80
2023/03/30 06:00:42;;;;;;;9.95;2.75;;;;;;;;;;5104699;28;20048;-80
2023/03/30 06:03:12;;;;;;;14.20;2.70;;;;;;;;;;5121653;27;20051;-81
2023/03/30 06:05:40;;;;;;;10.57;2.63;;;;;;;;;;5110702;27;20053;-80
2023/03/30 06:08:09;;;;;;;10.95;2.67;;;;;;;;;;5111276;27;20051;-80
2023/03/30 06:10:36;;;;;;;9.88;2.78;;;;;;;;;;5123368;27;20117;-81
2023/03/30 06:13:03;;;;;;;11.13;3.30;;;;;;;;;;5098142;27;20059;-81
2023/03/30 06:15:29;;;;;;;11.15;2.75;;;;;;;;;;5104242;28;20518;-81
2023/03/30 06:17:57;;;;;;;10.93;3.05;;;;;;;;;;5104043;28;20058;-81
2023/03/30 06:20:25;;;;;;;12.05;2.88;;;;;;;;;;5113906;27;20835;-81
2023/03/30 06:22:51;;;;;;;10.90;2.67;;;;;;;;;;5116232;27;20252;-81
2023/03/30 06:25:22;;;;;;;20.63;3.08;;;;;;;;;;5120896;27;20577;-81
2023/03/30 06:27:48;;;;;;;;;;;;;;;;;;5116490;27;20175;-80
2023/03/30 06:30:14;;;;;;;13.02;3.00;;;;;;;;;;5120636;27;47768;-81
2023/03/30 06:32:41;;;;;;;11.63;2.92;;;;;;;;;;5118625;27;20421;-81
2023/03/30 06:35:08;;;;;;;14.90;3.55;;;;;;;;;;5116382;27;20052;-81
2023/03/30 06:37:37;;;;;;;9.45;3.08;;;;;;;;;;5103696;27;20062;-81
2023/03/30 06:40:13;;;;;;;13.40;2.90;;;;;;;;;;5122228;27;20119;-81
2023/03/30 06:42:45;;;;;;;13.90;2.90;;;;;;;;;;5111360;27;20067;-81
2023/03/30 06:45:12;;;;;;;7.72;2.60;;;;;;;;;;5124015;27;20056;-81
2023/03/30 06:47:42;;;;;;;12.73;2.80;;;;;;;;;;5116859;27;20048;-81
2023/03/30 06:50:09;;;;;;;15.60;3.08;;;;;;;;;;5097794;27;20085;-81
2023/03/30 06:52:36;;;;;;;12.25;2.78;;;;;;;;;;5109876;27;20083;-81
2023/03/30 06:55:03;;;;;;;19.88;2.88;;;;;;;;;;5123077;27;20077;-81
2023/03/30 06:57:30;;;;;;;12.45;2.28;;;;;;;;;;5121318;27;20051;-81
2023/03/30 06:59:56;;;;;;;13.35;2.63;;;;;;;;;;5091960;27;20044;-81
2023/03/30 07:02:24;;;;;;;13.15;2.35;;;;;;;;;;5108753;27;20867;-81
2023/03/30 07:04:50;;;;;;;15.63;2.70;;;;;;;;;;5113818;27;20044;-81
2023/03/30 07:07:17;;;;;;;16.33;2.08;;;;;;;;;;5126981;27;20063;-81
2023/03/30 07:09:43;;;;;;;18.10;2.72;;;;;;;;;;5109561;27;21504;-81
2023/03/30 07:12:10;;;;;;;13.30;2.00;;;;;;;;;;5112466;27;20964;-81
2023/03/30 07:14:36;;;;;;;14.38;2.13;;;;;;;;;;5106504;27;20044;-82
2023/03/30 07:17:03;;;;;;;13.70;2.53;;;;;;;;;;5113319;27;20506;-81
2023/03/30 07:19:29;;;;;;;13.68;2.35;;;;;;;;;;5113644;27;20063;-81
2023/03/30 07:21:56;;;;;;;13.68;2.28;;;;;;;;;;5121836;27;20154;-81
2023/03/30 07:24:22;;;;;;;12.30;2.10;;;;;;;;;;5091227;28;20131;-81
2023/03/30 07:26:48;;;;;;;18.27;3.40;;;;;;;;;;5122382;27;20130;-81
2023/03/30 07:29:15;;;;;;;13.32;2.67;;;;;;;;;;5114920;27;20058;-81
2023/03/30 07:31:42;;;;;;;11.32;2.90;;;;;;;;;;5112994;27;20540;-81
2023/03/30 07:34:08;;;;;;;12.05;2.90;;;;;;;;;;5120108;27;20142;-81
2023/03/30 07:36:34;;;;;;;12.95;2.80;;;;;;;;;;5117325;27;20054;-81
2023/03/30 07:39:01;;;;;;;13.98;3.22;;;;;;;;;;5123158;27;20058;-81
2023/03/30 07:41:27;;;;;;;13.10;3.10;;;;;;;;;;5095640;27;20062;-81
2023/03/30 07:43:54;;;;;;;15.05;3.38;;;;;;;;;;5123485;27;20047;-81
2023/03/30 07:46:20;;;;;;;16.02;2.70;;;;;;;;;;5118686;27;20147;-81
2023/03/30 07:48:46;;;;;;;12.35;3.13;;;;;;;;;;5099849;27;20052;-81
2023/03/30 07:51:13;;;;;;;12.52;2.95;;;;;;;;;;5114339;27;20576;-81
2023/03/30 07:53:39;;;;;;;16.30;2.88;;;;;;;;;;5124710;27;20044;-81
2023/03/30 07:56:06;;;;;;;11.98;2.58;;;;;;;;;;5120991;27;20159;-81
2023/03/30 07:58:32;;;;;;;14.18;2.60;;;;;;;;;;5115313;27;20060;-80
2023/03/30 08:01:01;;;;;;;13.57;2.90;;;;;;;;;;5112898;27;20047;-80
2023/03/30 08:03:28;;;;;;;13.63;2.67;;;;;;;;;;5114956;27;20099;-81
2023/03/30 08:05:55;;;;;;;10.90;2.42;;;;;;;;;;5112301;27;20939;-81
2023/03/30 08:08:21;;;;;;;9.00;2.30;;;;;;;;;;5110956;27;20060;-81
2023/03/30 08:10:48;;;;;;;15.77;2.70;;;;;;;;;;5112755;27;20041;-81
2023/03/30 08:13:14;;;;;;;18.80;3.30;;;;;;;;;;5112095;27;20051;-81
2023/03/30 08:15:41;;;;;;;15.75;2.70;;;;;;;;;;5121182;27;20044;-81
2023/03/30 08:18:07;;;;;;;17.83;2.78;;;;;;;;;;5105690;27;20627;-81
2023/03/30 08:20:35;;;;;;;21.38;3.03;;;;;;;;;;5103768;27;20056;-81
2023/03/30 08:23:02;;;;;;;12.98;2.97;;;;;;;;;;5121546;27;20468;-81
2023/03/30 08:25:28;;;;;;;18.13;3.17;;;;;;;;;;5122244;27;20066;-80
2023/03/30 08:27:55;;;;;;;16.33;3.53;;;;;;;;;;5115027;27;20052;-80
2023/03/30 08:30:21;;;;;;;17.98;3.03;;;;;;;;;;5104779;27;20059;-80
2023/03/30 08:32:48;;;;;;;20.30;4.00;;;;;;;;;;5114361;27;20492;-80
2023/03/30 08:35:15;;;;;;;13.80;3.10;;;;;;;;;;5109510;27;20258;-80
2023/03/30 08:37:42;;;;;;;18.52;3.53;;;;;;;;;;5118063;27;20117;-80
2023/03/30 08:40:10;;;;;;;23.73;4.22;;;;;;;;;;5123390;27;20085;-80
2023/03/30 08:42:41;;;;;;;17.73;3.85;;;;;;;;;;5118047;27;20107;-81
2023/03/30 08:45:09;;;;;;;17.85;3.53;;;;;;;;;;5118814;27;20143;-80
2023/03/30 08:47:38;;;;;;;17.23;3.17;;;;;;;;;;5105433;28;20554;-80
2023/03/30 08:50:07;;;;;;;19.23;3.67;;;;;;;;;;5086692;28;20052;-81
2023/03/30 08:52:34;;;;;;;14.02;2.50;;;;;;;;;;5119730;27;20698;-80
2023/03/30 08:55:02;;;;;;;14.85;2.90;;;;;;;;;;5116635;27;22607;-80
2023/03/30 08:57:36;;;;;;;14.77;2.78;;;;;;;;;;5114642;27;20139;-80
2023/03/30 09:00:35;;;;;;;12.95;2.28;;;;;;;;;;5091230;27;20058;-80
2023/03/30 09:03:08;;;;;;;16.23;2.58;;;;;;;;;;5070066;27;20059;-80
2023/03/30 09:05:42;;;;;;;11.93;2.45;;;;;;;;;;5114689;27;20047;-81
2023/03/30 09:08:23;;;;;;;12.57;2.30;;;;;;;;;;5113603;27;20055;-81
2023/03/30 09:10:55;;;;;;;11.15;2.45;;;;;;;;;;5095807;28;20044;-81
2023/03/30 09:13:24;;;;;;;11.43;2.13;;;;;;;;;;5119523;27;20058;-81
2023/03/30 09:15:57;;;;;;;17.27;3.00;;;;;;;;;;5121473;27;20167;-81
2023/03/30 09:18:26;;;;;;;15.82;3.35;;;;;;;;;;5109705;27;20060;-81
2023/03/30 09:20:53;;;;;;;15.43;2.47;;;;;;;;;;5121883;27;20090;-81
2023/03/30 09:23:20;;;;;;;19.10;3.50;;;;;;;;;;5115946;27;20077;-81
2023/03/30 09:25:52;;;;;;;16.67;3.58;;;;;;;;;;5103443;27;20051;-81
2023/03/30 09:28:28;;;;;;;16.23;2.42;;;;;;;;;;5126177;27;20102;-81
2023/03/30 09:30:55;;;;;;;15.25;3.03;;;;;;;;;;5127106;27;20056;-81
2023/03/30 09:33:27;;;;;;;16.85;3.63;;;;;;;;;;5110540;27;20165;-81
2023/03/30 09:36:02;;;;;;;18.00;3.58;;;;;;;;;;5128901;27;20054;-81
2023/03/30 09:38:31;;;;;;;17.42;2.78;;;;;;;;;;5116325;27;20068;-81
2023/03/30 09:41:09;;;;;;;16.17;2.72;;;;;;;;;;5118307;27;20575;-81
2023/03/30 09:43:44;;;;;;;18.90;3.28;;;;;;;;;;5106678;27;20107;-81
2023/03/30 09:46:12;;;;;;;17.90;3.45;;;;;;;;;;5125329;27;20081;-81
2023/03/30 09:48:39;;;;;;;13.48;2.60;;;;;;;;;;5115788;27;20059;-81
2023/03/30 09:51:21;;;;;;;17.10;3.25;;;;;;;;;;5108145;27;20572;-81
2023/03/30 09:53:49;;;;;;;18.10;3.20;;;;;;;;;;5125355;27;20055;-82
2023/03/30 09:56:17;;;;;;;20.20;3.67;;;;;;;;;;5110105;27;20052;-81
2023/03/30 09:58:43;;;;;;;19.63;3.10;;;;;;;;;;5114981;27;20060;-81
2023/03/30 10:01:15;;;;;;;19.60;2.95;;;;;;;;;;5108732;27;20060;-81
2023/03/30 10:03:43;;;;;;;20.25;3.15;;;;;;;;;;5099447;27;20078;-81
2023/03/30 10:06:12;;;;;;;22.10;2.70;;;;;;;;;;5127613;27;20054;-81
2023/03/30 10:08:49;;;;;;;23.50;3.58;;;;;;;;;;5108230;27;20109;-82
2023/03/30 10:11:20;;;;;;;24.55;3.00;;;;;;;;;;5119549;27;20055;-82
2023/03/30 10:13:48;;;;;;;19.02;3.25;;;;;;;;;;5116563;27;20066;-82
2023/03/30 10:16:25;;;;;;;22.50;3.28;;;;;;;;;;5100073;28;20171;-82
2023/03/30 10:18:54;;;;;;;19.73;3.30;;;;;;;;;;5116120;27;20559;-82
2023/03/30 10:21:27;;;;;;;16.90;3.38;;;;;;;;;;5098302;27;20506;-81
2023/03/30 10:24:20;;;;;;;13.00;2.63;;;;;;;;;;5114411;27;20497;-81
2023/03/30 10:26:49;;;;;;;18.60;3.42;;;;;;;;;;5120555;27;20056;-81
2023/03/30 10:29:17;;;;;;;21.83;3.13;;;;;;;;;;5109398;27;20146;-80
2023/03/30 10:31:45;;;;;;;23.60;3.72;;;;;;;;;;5109265;27;20109;-81
2023/03/30 10:34:21;;;;;;;19.85;3.17;;;;;;;;;;5104593;27;20048;-81
2023/03/30 10:36:51;;;;;;;24.77;3.38;;;;;;;;;;5096611;27;20557;-81
2023/03/30 10:39:31;;;;;;;20.63;3.63;;;;;;;;;;5127111;27;20056;-81
2023/03/30 10:42:03;;;;;;;20.17;3.78;;;;;;;;;;5113361;27;20431;-81
2023/03/30 10:44:30;;;;;;;23.55;4.60;;;;;;;;;;5116688;27;20051;-81
2023/03/30 10:47:03;;;;;;;22.35;3.35;;;;;;;;;;5115882;27;20043;-83
2023/03/30 10:49:45;;;;;;;19.02;3.42;;;;;;;;;;5119203;27;20132;-85
2023/03/30 10:52:18;;;;;;;16.20;2.63;;;;;;;;;;5093842;28;20438;-83
2023/03/30 10:54:59;;;;;;;22.48;3.25;;;;;;;;;;5120574;27;20051;-83
2023/03/30 10:57:54;;;;;;;17.08;2.78;;;;;;;;;;5115551;27;20054;-83
2023/03/30 11:00:27;;;;;;;16.23;2.95;;;;;;;;;;5095370;27;20960;-83
2023/03/30 11:02:57;;;;;;;17.88;2.72;;;;;;;;;;5104201;27;20044;-83
2023/03/30 11:05:29;;;;;;;25.85;3.97;;;;;;;;;;5105258;27;20120;-82
2023/03/30 11:08:02;;;;;;;21.48;3.20;;;;;;;;;;5124688;27;20136;-84
2023/03/30 11:10:30;;;;;;;;;;;;;;;;;;5121387;27;20051;-83
2023/03/30 11:12:59;;;;;;;18.70;3.20;;;;;;;;;;5120794;27;49030;-83
2023/03/30 11:15:39;;;;;;;16.33;2.92;;;;;;;;;;5090920;27;20978;-83
2023/03/30 11:18:12;;;;;;;24.00;2.85;;;;;;;;;;5126487;27;20502;-83
2023/03/30 11:20:56;;;;;;;18.98;3.33;;;;;;;;;;5096052;27;20064;-83
2023/03/30 11:23:22;;;;;;;19.38;2.90;;;;;;;;;;5117532;27;20059;-82
2023/03/30 11:25:55;;;;;;;13.90;2.50;;;;;;;;;;5121909;27;20055;-82
2023/03/30 11:28:40;;;;;;;16.75;2.50;;;;;;;;;;5125343;27;20135;-82
2023/03/30 11:31:25;;;;;;;16.48;2.88;;;;;;;;;;5116403;27;20771;-82
2023/03/30 11:34:07;;;;;;;17.23;2.60;;;;;;;;;;5122921;27;20494;-82
2023/03/30 11:36:38;;;;;;;14.77;2.83;;;;;;;;;;5101760;27;20062;-83
2023/03/30 11:39:11;;;;;;;18.05;3.10;;;;;;;;;;5095459;27;20052;-82
2023/03/30 11:42:05;;;;;;;14.07;3.05;;;;;;;;;;5094515;27;20664;-82
2023/03/30 11:44:32;;;;;;;14.55;3.00;;;;;;;;;;5119059;27;20131;-82
2023/03/30 11:46:59;;;;;;;15.45;2.70;;;;;;;;;;5115184;27;20079;-81
2023/03/30 11:49:37;;;;;;;19.20;2.80;;;;;;;;;;5112292;27;20053;-82
2023/03/30 11:52:10;;;;;;;16.80;3.00;;;;;;;;;;5121206;27;20059;-81
2023/03/30 11:54:37;;;;;;;18.90;2.38;;;;;;;;;;5112155;27;20608;-81
2023/03/30 11:57:23;;;;;;;19.00;3.08;;;;;;;;;;5117616;27;20549;-82
2023/03/30 12:00:08;;;;;;;15.98;2.90;;;;;;;;;;5092677;27;20098;-82
2023/03/30 12:02:43;;;;;;;17.17;3.13;;;;;;;;;;5112349;27;20066;-83
2023/03/30 12:05:16;;;;;;;13.65;2.38;;;;;;;;;;5116101;27;20875;-82
2023/03/30 12:07:42;;;;;;;15.80;2.67;;;;;;;;;;5126618;27;20051;-82
2023/03/30 12:10:19;;;;;;;16.65;3.13;;;;;;;;;;5124481;27;20828;-82
2023/03/30 12:12:48;;;;;;;13.98;2.30;;;;;;;;;;5124393;27;20048;-82
2023/03/30 12:15:25;;;;;;;23.75;2.85;;;;;;;;;;5109909;27;20060;-82
2023/03/30 12:18:11;;;;;;;20.40;2.85;;;;;;;;;;5121503;27;20047;-82
2023/03/30 12:20:44;;;;;;;19.50;2.90;;;;;;;;;;5111653;27;20154;-82
2023/03/30 12:23:20;;;;;;;17.27;2.95;;;;;;;;;;5106181;27;20044;-82
2023/03/30 12:25:50;;;;;;;18.70;2.78;;;;;;;;;;5110024;27;20056;-81
2023/03/30 12:28:18;;;;;;;19.83;3.00;;;;;;;;;;5123667;27;20058;-82
2023/03/30 12:30:53;;;;;;;15.48;3.30;;;;;;;;;;5096655;27;20274;-82
2023/03/30 12:33:44;;;;;;;22.58;3.47;;;;;;;;;;5119998;27;20147;-81
2023/03/30 12:36:33;;;;;;;15.73;2.90;;;;;;;;;;5100479;27;20056;-81
2023/03/30 12:39:04;;;;;;;20.27;3.78;;;;;;;;;;5121676;27;20089;-83
2023/03/30 12:41:43;;;;;;;21.13;3.00;;;;;;;;;;5117763;27;20900;-82
2023/03/30 12:44:28;;;;;;;23.15;3.67;;;;;;;;;;5118560;27;20082;-82
2023/03/30 12:47:02;;;;;;;18.80;2.75;;;;;;;;;;5098554;27;20059;-82
2023/03/30 12:49:32;;;;;;;16.75;2.95;;;;;;;;;;5103741;27;20060;-82
2023/03/30 12:52:08;;;;;;;16.98;2.83;;;;;;;;;;5121545;27;20064;-81
2023/03/30 12:54:43;;;;;;;19.08;2.45;;;;;;;;;;5134858;27;20052;-82
2023/03/30 12:57:30;;;;;;;23.08;2.90;;;;;;;;;;5131242;27;20056;-81
2023/03/30 12:59:59;;;;;;;19.13;3.10;;;;;;;;;;5113442;27;20056;-82
2023/03/30 13:02:45;;;;;;;24.58;3.45;;;;;;;;;;5098761;28;20059;-81
2023/03/30 13:05:16;;;;;;;21.75;3.33;;;;;;;;;;5115929;27;20533;-82
2023/03/30 13:07:43;;;;;;;18.75;2.80;;;;;;;;;;5117549;27;20043;-81
2023/03/30 13:10:27;;;;;;;17.52;3.22;;;;;;;;;;5126199;27;20578;-81
2023/03/30 13:12:57;;;;;;;20.60;3.25;;;;;;;;;;5129963;27;20069;-81
2023/03/30 13:15:42;;;;;;;19.50;2.88;;;;;;;;;;5129795;27;20046;-81
2023/03/30 13:18:08;;;;;;;22.30;2.90;;;;;;;;;;5131839;27;20518;-82
2023/03/30 13:20:36;;;;;;;21.90;2.95;;;;;;;;;;5133150;27;20050;-81
2023/03/30 13:23:08;;;;;;;24.42;3.85;;;;;;;;;;5118122;27;20052;-81
2023/03/30 13:25:40;;;;;;;23.65;2.88;;;;;;;;;;5125682;27;20052;-81
2023/03/30 13:28:26;;;;;;;20.48;3.40;;;;;;;;;;5122037;27;20843;-79
2023/03/30 13:30:54;;;;;;;18.38;3.50;;;;;;;;;;5137291;27;20162;-80
2023/03/30 13:33:22;;;;;;;26.02;3.47;;;;;;;;;;5134515;27;20166;-80
2023/03/30 13:35:52;;;;;;;16.52;3.38;;;;;;;;;;5133092;27;20089;-79
2023/03/30 13:38:31;;;;;;;27.08;3.78;;;;;;;;;;5126590;27;20071;-79
2023/03/30 13:41:06;;;;;;;22.98;3.10;;;;;;;;;;5119696;27;20059;-80
2023/03/30 13:43:46;;;;;;;23.40;3.08;;;;;;;;;;5110123;27;20513;-80
2023/03/30 13:46:31;;;;;;;19.23;2.97;;;;;;;;;;5102192;28;20060;-80
2023/03/30 13:49:24;;;;;;;21.67;3.20;;;;;;;;;;5134364;27;20117;-80
2023/03/30 13:51:52;;;;;;;23.20;3.47;;;;;;;;;;5125739;27;20070;-80
2023/03/30 13:54:25;;;;;;;18.13;2.70;;;;;;;;;;5133708;27;20060;-80
2023/03/30 13:56:55;;;;;;;21.92;3.03;;;;;;;;;;5131022;27;20056;-80
2023/03/30 13:59:22;;;;;;;;;;;;;;;;;;5128027;27;20066;-80
2023/03/30 14:01:51;;;;;;;18.33;3.28;;;;;;;;;;5113157;27;47648;-80
2023/03/30 14:04:17;;;;;;;18.08;2.55;;;;;;;;;;5128675;27;20067;-80
2023/03/30 14:06:48;;;;;;;15.65;2.60;;;;;;;;;;5118363;27;20055;-80
2023/03/30 14:09:25;;;;;;;20.17;2.88;;;;;;;;;;5111347;27;20907;-80
2023/03/30 14:11:53;;;;;;;17.02;3.17;;;;;;;;;;5113520;27;20281;-80
2023/03/30 14:14:26;;;;;;;22.08;2.78;;;;;;;;;;5105179;27;20102;-80
2023/03/30 14:16:54;;;;;;;15.95;2.70;;;;;;;;;;5105159;27;21033;-80
2023/03/30 14:19:27;;;;;;;16.52;2.50;;;;;;;;;;5106480;27;20162;-80
2023/03/30 14:21:55;;;;;;;16.23;2.30;;;;;;;;;;5109985;27;20040;-80
2023/03/30 14:24:26;;;;;;;12.40;2.28;;;;;;;;;;5124911;27;20061;-80
2023/03/30 14:26:59;;;;;;;15.60;2.70;;;;;;;;;;5113418;27;20520;-80
2023/03/30 14:29:29;;;;;;;24.65;2.70;;;;;;;;;;5111067;27;20117;-81
2023/03/30 14:32:01;;;;;;;21.58;2.75;;;;;;;;;;5117113;27;20973;-80
2023/03/30 14:34:32;;;;;;;20.30;2.85;;;;;;;;;;5107195;27;20047;-80
2023/03/30 14:36:59;;;;;;;13.23;2.35;;;;;;;;;;5118444;27;20135;-80
2023/03/30 14:39:27;;;;;;;19.02;3.30;;;;;;;;;;5129433;27;20055;-81
2023/03/30 14:41:55;;;;;;;16.15;2.75;;;;;;;;;;5124207;27;20059;-81
2023/03/30 14:44:22;;;;;;;17.48;2.30;;;;;;;;;;5125293;27;20052;-81
2023/03/30 14:46:50;;;;;;;16.38;2.60;;;;;;;;;;5128960;27;20064;-80
2023/03/30 14:49:22;;;;;;;20.00;2.67;;;;;;;;;;5113123;27;20043;-80
2023/03/30 14:51:50;;;;;;;21.05;2.83;;;;;;;;;;5131182;27;20075;-81
2023/03/30 14:54:22;;;;;;;19.60;3.63;;;;;;;;;;5121110;27;20056;-80
2023/03/30 14:56:55;;;;;;;17.92;2.47;;;;;;;;;;5112006;27;20055;-80